Shin Mei Maru — JG5617 — position and weather

sailwx.info

Track history (hours):
 
Tides and Currents Weather Stations Pressure Air Temp Water Temp Dewpoint Dewpoint Depression Visibility Wind Speed Wind Dir Waves Ship Positions

Shin Mei Maru

Last reported at 2017-Jan-14 10:31 UTC. Time now 2017-Jan-18 08:08 UTC.
Position N 35°01' E 139°43'.

Length 160 m; draft 7 m.

Type: Cargo ship. MMSI: 431100922.

Date/timePositionNaut miles runAvg speedWind from/ knotsBaromVisibWave heightAir tempDewpointWater temp
2017-Jan-14 10:31N 35°01' E 139°43'1616.1
2017-Jan-14 09:33N 35°16' E 139°46'1211.8
2017-Jan-14 08:34N 35°28' E 139°48'1010.1
2017-Jan-14 07:33N 35°38' E 139°46'0 0.0
2017-Jan-14 06:31N 35°38' E 139°46'0 0.0
2017-Jan-14 05:28N 35°38' E 139°46'0 0.0
2017-Jan-14 04:28N 35°38' E 139°46'0 0.0
2017-Jan-14 03:28N 35°38' E 139°46'0 0.0
2017-Jan-13 23:28N 35°38' E 139°46'3 3.5
2017-Jan-13 22:33N 35°35' E 139°48'1313.0
2017-Jan-13 21:33N 35°22' E 139°45'1312.8
2017-Jan-13 20:34N 35°10' E 139°47'  
2017-Jan-10 12:06N 35°00' E 139°43'917.2
2017-Jan-10 11:33N 35°09' E 139°45'1413.7
2017-Jan-10 10:33N 35°23' E 139°42'1413.9
2017-Jan-10 09:33N 35°34' E 139°52'0 0.1
2017-Jan-10 08:32N 35°34' E 139°52'6 6.4
2017-Jan-10 07:33N 35°38' E 139°46'0 0.1
2017-Jan-10 06:33N 35°38' E 139°46'0 0.0
2017-Jan-10 05:33N 35°38' E 139°46'0 0.0
2017-Jan-10 04:33N 35°38' E 139°46'0 0.0
2017-Jan-10 03:30N 35°38' E 139°46'0 0.0
2017-Jan-10 02:33N 35°38' E 139°46'0 0.0
2017-Jan-10 01:27N 35°38' E 139°46'0 0.0
2017-Jan-10 00:33N 35°38' E 139°46'1 1.0
2017-Jan-09 23:33N 35°37' E 139°46'1212.2
2017-Jan-09 22:33N 35°25' E 139°47'1111.2
2017-Jan-09 21:33N 35°13' E 139°47'18 0.5
2017-Jan-08 12:03N 35°00' E 139°32'815.9
2017-Jan-08 11:32N 35°05' E 139°40'1313.4
2017-Jan-08 10:33N 35°18' E 139°44'1413.6
2017-Jan-08 09:33N 35°30' E 139°52'1 1.4
2017-Jan-08 08:32N 35°31' E 139°53'0 0.0
2017-Jan-08 07:29N 35°31' E 139°53'2 2.0
2017-Jan-08 06:33N 35°32' E 139°51'7 7.3
2017-Jan-08 05:33N 35°38' E 139°46'0 0.0
2017-Jan-08 04:28N 35°38' E 139°46'0 0.0
2017-Jan-08 03:31N 35°38' E 139°46'0 0.0
2017-Jan-08 02:22N 35°38' E 139°46'0 0.0
2017-Jan-08 01:28N 35°38' E 139°46'0 0.0
2017-Jan-08 00:31N 35°38' E 139°46'0 0.2
2017-Jan-07 23:34N 35°38' E 139°46'1111.3
2017-Jan-07 22:33N 35°27' E 139°50'1211.5
2017-Jan-07 21:33N 35°16' E 139°47'  
Track history (hours):
 
Tides and Currents Weather Stations Pressure Air Temp Water Temp Dewpoint Dewpoint Depression Visibility Wind Speed Wind Dir Waves Ship Positions

Shin Mei Maru

Last reported at 2017-Jan-14 10:31 UTC. Time now 2017-Jan-18 08:08 UTC.
Position N 35°01' E 139°43'.

Length 160 m; draft 7 m.

Type: Cargo ship. MMSI: 431100922.

Date/timePositionNaut miles runAvg speedWind from/ knotsBaromVisibWave heightAir tempDewpointWater temp
2017-Jan-14 10:31N 35°01' E 139°43'1616.1
2017-Jan-14 09:33N 35°16' E 139°46'1211.8
2017-Jan-14 08:34N 35°28' E 139°48'1010.1
2017-Jan-14 07:33N 35°38' E 139°46'0 0.0
2017-Jan-14 06:31N 35°38' E 139°46'0 0.0
2017-Jan-14 05:28N 35°38' E 139°46'0 0.0
2017-Jan-14 04:28N 35°38' E 139°46'0 0.0
2017-Jan-14 03:28N 35°38' E 139°46'0 0.0
2017-Jan-13 23:28N 35°38' E 139°46'3 3.5
2017-Jan-13 22:33N 35°35' E 139°48'1313.0
2017-Jan-13 21:33N 35°22' E 139°45'1312.8
2017-Jan-13 20:34N 35°10' E 139°47'  
2017-Jan-10 12:06N 35°00' E 139°43'917.2
2017-Jan-10 11:33N 35°09' E 139°45'1413.7
2017-Jan-10 10:33N 35°23' E 139°42'1413.9
2017-Jan-10 09:33N 35°34' E 139°52'0 0.1
2017-Jan-10 08:32N 35°34' E 139°52'6 6.4
2017-Jan-10 07:33N 35°38' E 139°46'0 0.1
2017-Jan-10 06:33N 35°38' E 139°46'0 0.0
2017-Jan-10 05:33N 35°38' E 139°46'0 0.0
2017-Jan-10 04:33N 35°38' E 139°46'0 0.0
2017-Jan-10 03:30N 35°38' E 139°46'0 0.0
2017-Jan-10 02:33N 35°38' E 139°46'0 0.0
2017-Jan-10 01:27N 35°38' E 139°46'0 0.0
2017-Jan-10 00:33N 35°38' E 139°46'1 1.0
2017-Jan-09 23:33N 35°37' E 139°46'1212.2
2017-Jan-09 22:33N 35°25' E 139°47'1111.2
2017-Jan-09 21:33N 35°13' E 139°47'18 0.5
2017-Jan-08 12:03N 35°00' E 139°32'815.9
2017-Jan-08 11:32N 35°05' E 139°40'1313.4
2017-Jan-08 10:33N 35°18' E 139°44'1413.6
2017-Jan-08 09:33N 35°30' E 139°52'1 1.4
2017-Jan-08 08:32N 35°31' E 139°53'0 0.0
2017-Jan-08 07:29N 35°31' E 139°53'2 2.0
2017-Jan-08 06:33N 35°32' E 139°51'7 7.3
2017-Jan-08 05:33N 35°38' E 139°46'0 0.0
2017-Jan-08 04:28N 35°38' E 139°46'0 0.0
2017-Jan-08 03:31N 35°38' E 139°46'0 0.0
2017-Jan-08 02:22N 35°38' E 139°46'0 0.0
2017-Jan-08 01:28N 35°38' E 139°46'0 0.0
2017-Jan-08 00:31N 35°38' E 139°46'0 0.2
2017-Jan-07 23:34N 35°38' E 139°46'1111.3
2017-Jan-07 22:33N 35°27' E 139°50'1211.5
2017-Jan-07 21:33N 35°16' E 139°47'  

Dump ship's entire track history